Time,TemperatureF,DewpointF,PressureIn,WindDirection,WindDirectionDegrees,WindSpeedMPH,WindSpeedGustMPH,Humidity,HourlyPrecipIn,Conditions,Clouds,dailyrainin,SoftwareType,DateUTC
2013-08-14 00:11:00,63.0,54.0,29.93,WSW,255,0.0,1.0,73,0.00,,,0.00,,2013-08-14 07:11:00,
2013-08-14 00:21:00,63.0,55.0,29.94,WSW,253,0.0,1.0,75,0.00,,,0.00,,2013-08-14 07:21:00,
2013-08-14 00:41:00,61.0,54.0,29.95,SW,219,1.0,1.0,77,0.00,,,0.00,,2013-08-14 07:41:00,
2013-08-14 00:52:00,61.0,54.0,29.94,SW,219,0.0,1.0,79,0.00,,,0.00,,2013-08-14 07:52:00,
2013-08-14 01:11:00,60.0,54.0,29.94,SW,219,1.0,1.0,80,0.00,,,0.00,,2013-08-14 08:11:00,
2013-08-14 01:21:00,60.0,54.0,29.94,WSW,257,0.0,1.0,81,0.00,,,0.00,,2013-08-14 08:21:00,
2013-08-14 01:52:00,60.0,54.0,29.94,West,259,0.0,0.0,80,0.00,,,0.00,,2013-08-14 08:52:00,
2013-08-14 02:11:00,60.0,54.0,29.94,WSW,257,0.0,0.0,81,0.00,,,0.00,,2013-08-14 09:11:00,
2013-08-14 02:21:00,60.0,54.0,29.94,SW,224,0.0,1.0,82,0.00,,,0.00,,2013-08-14 09:21:00,
2013-08-14 02:43:00,59.0,54.0,29.94,West,276,1.0,2.0,83,0.00,,,0.00,,2013-08-14 09:43:00,
2013-08-14 02:53:00,59.0,54.0,29.94,West,274,0.0,1.0,83,0.00,,,0.00,,2013-08-14 09:53:00,
2013-08-14 03:11:00,58.0,53.0,29.94,West,274,0.0,1.0,84,0.00,,,0.00,,2013-08-14 10:11:00,
2013-08-14 03:22:00,58.0,54.0,29.94,SSW,204,1.0,1.0,85,0.00,,,0.00,,2013-08-14 10:22:00,
2013-08-14 03:42:00,58.0,54.0,29.94,SSW,201,0.0,1.0,86,0.00,,,0.00,,2013-08-14 10:42:00,
2013-08-14 03:52:00,58.0,54.0,29.94,SSW,201,0.0,0.0,86,0.00,,,0.00,,2013-08-14 10:52:00,
2013-08-14 04:11:00,58.0,54.0,29.94,SSW,200,0.0,0.0,85,0.00,,,0.00,,2013-08-14 11:11:00,
2013-08-14 04:21:00,58.0,54.0,29.94,SSW,201,0.0,0.0,88,0.00,,,0.00,,2013-08-14 11:21:00,
2013-08-14 04:41:00,59.0,54.0,29.94,East,81,1.0,2.0,85,0.00,,,0.00,,2013-08-14 11:41:00,
2013-08-14 04:52:00,59.0,54.0,29.94,East,89,0.0,1.0,85,0.00,,,0.00,,2013-08-14 11:52:00,
2013-08-14 05:11:00,58.0,54.0,29.94,East,91,0.0,1.0,86,0.00,,,0.00,,2013-08-14 12:11:00,
2013-08-14 05:21:00,57.0,53.0,29.94,SSE,149,0.0,0.0,87,0.00,,,0.00,,2013-08-14 12:21:00,
2013-08-14 05:42:00,57.0,53.0,29.94,SSE,150,0.0,0.0,87,0.00,,,0.00,,2013-08-14 12:42:00,
2013-08-14 05:52:00,57.0,53.0,29.94,SSW,204,0.0,0.0,87,0.00,,,0.00,,2013-08-14 12:52:00,
2013-08-14 06:11:00,57.0,53.0,29.95,SW,235,0.0,0.0,87,0.00,,,0.00,,2013-08-14 13:11:00,
2013-08-14 06:21:00,57.0,53.0,29.95,SW,235,0.0,0.0,88,0.00,,,0.00,,2013-08-14 13:21:00,
2013-08-14 06:52:00,57.0,53.0,29.95,SSE,148,0.0,0.0,87,0.00,,,0.00,,2013-08-14 13:52:00,
2013-08-14 07:11:00,57.0,53.0,29.94,SSE,148,0.0,0.0,88,0.00,,,0.00,,2013-08-14 14:11:00,
2013-08-14 07:21:00,60.0,56.0,29.94,SE,132,1.0,3.0,87,0.00,,,0.00,,2013-08-14 14:21:00,
2013-08-14 07:52:00,60.0,55.0,29.95,WSW,252,2.0,3.0,84,0.00,,,0.00,,2013-08-14 14:52:00,
2013-08-14 08:11:00,61.0,56.0,29.95,SSE,168,0.0,3.0,83,0.00,,,0.00,,2013-08-14 15:11:00,
2013-08-14 08:22:00,63.0,57.0,29.95,West,259,1.0,2.0,80,0.00,,,0.00,,2013-08-14 15:22:00,
2013-08-14 08:43:00,64.0,57.0,29.95,SW,227,0.0,1.0,79,0.00,,,0.00,,2013-08-14 15:43:00,
2013-08-14 08:56:00,65.0,58.0,29.94,East,95,1.0,3.0,77,0.00,,,0.00,,2013-08-14 15:56:00,
2013-08-14 09:12:00,65.0,57.0,29.94,SSE,147,3.0,6.0,76,0.00,,,0.00,,2013-08-14 16:12:00,
2013-08-14 09:24:00,65.0,57.0,29.94,West,259,1.0,3.0,76,0.00,,,0.00,,2013-08-14 16:24:00,
2013-08-14 09:42:00,65.0,57.0,29.94,West,264,2.0,3.0,76,0.00,,,0.00,,2013-08-14 16:42:00,
2013-08-14 10:01:00,66.0,59.0,29.93,SW,235,0.0,2.0,77,0.00,,,0.00,,2013-08-14 17:01:00,
2013-08-14 10:20:00,67.0,58.0,29.94,West,278,2.0,6.0,73,0.00,,,0.00,,2013-08-14 17:20:00,
2013-08-14 10:28:00,67.0,58.0,29.93,SSE,148,2.0,3.0,73,0.00,,,0.00,,2013-08-14 17:28:00,
2013-08-14 10:44:00,68.0,58.0,29.94,SSE,159,5.0,9.0,70,0.00,,,0.00,,2013-08-14 17:44:00,
2013-08-14 10:55:00,69.0,58.0,29.93,NW,321,2.0,5.0,69,0.00,,,0.00,,2013-08-14 17:55:00,
2013-08-14 11:27:00,71.0,59.0,29.93,WNW,292,3.0,5.0,67,0.00,,,0.00,,2013-08-14 18:27:00,
2013-08-14 11:53:00,-999.0,-99.9,29.93,SSW,198,4.0,6.0,-999,-99.99,,,-99.99,,2013-08-14 18:53:00,
2013-08-14 12:12:00,71.0,60.0,29.93,WSW,242,4.0,6.0,68,0.00,,,0.00,,2013-08-14 19:12:00,
2013-08-14 12:23:00,71.0,59.0,29.93,SW,232,4.0,9.0,66,0.00,,,0.00,,2013-08-14 19:23:00,
2013-08-14 12:42:00,73.0,59.0,29.92,SSW,200,3.0,7.0,62,0.00,,,0.00,,2013-08-14 19:42:00,
2013-08-14 12:54:00,74.0,59.0,29.92,SW,226,5.0,8.0,60,0.00,,,0.00,,2013-08-14 19:54:00,
2013-08-14 13:11:00,75.0,59.0,29.92,SSW,194,6.0,11.0,58,0.00,,,0.00,,2013-08-14 20:11:00,
2013-08-14 13:48:00,76.0,59.0,29.92,SW,229,4.0,7.0,55,0.00,,,0.00,,2013-08-14 20:48:00,
2013-08-14 14:13:00,76.0,58.0,29.91,WSW,255,5.0,10.0,53,0.00,,,0.00,,2013-08-14 21:13:00,
2013-08-14 14:23:00,77.0,59.0,29.91,SSW,197,4.0,7.0,53,0.00,,,0.00,,2013-08-14 21:23:00,
2013-08-14 14:45:00,77.0,59.0,29.91,WSW,253,5.0,7.0,53,0.00,,,0.00,,2013-08-14 21:45:00,
2013-08-14 14:55:00,77.0,60.0,29.91,SW,221,2.0,7.0,55,0.00,,,0.00,,2013-08-14 21:55:00,
2013-08-14 15:12:00,77.0,60.0,29.91,SSW,194,3.0,6.0,55,0.00,,,0.00,,2013-08-14 22:12:00,
2013-08-14 15:23:00,76.0,58.0,29.91,WSW,237,5.0,9.0,54,0.00,,,0.00,,2013-08-14 22:23:00,
2013-08-14 15:54:00,77.0,59.0,29.92,West,271,5.0,9.0,54,0.00,,,0.00,,2013-08-14 22:54:00,
2013-08-14 16:13:00,77.0,59.0,29.91,SW,231,5.0,16.0,53,0.00,,,0.00,,2013-08-14 23:13:00,
2013-08-14 16:24:00,77.0,58.0,29.91,SW,231,5.0,10.0,52,0.00,,,0.00,,2013-08-14 23:24:00,
2013-08-14 16:46:00,76.0,57.0,29.91,SW,232,5.0,8.0,52,0.00,,,0.00,,2013-08-14 23:46:00,
2013-08-14 16:56:00,76.0,57.0,29.91,WSW,255,9.0,15.0,52,0.00,,,0.00,,2013-08-14 23:56:00,
2013-08-14 17:12:00,72.0,55.0,29.91,WNW,287,9.0,15.0,56,0.00,,,0.00,,2013-08-15 00:12:00,
2013-08-14 17:22:00,72.0,55.0,29.91,WNW,287,9.0,15.0,56,0.00,,,0.00,,2013-08-15 00:22:00,
2013-08-14 17:42:00,70.0,58.0,29.92,WSW,250,4.0,9.0,66,0.00,,,0.00,,2013-08-15 00:42:00,
2013-08-14 17:52:00,70.0,57.0,29.92,WSW,256,5.0,7.0,64,0.00,,,0.00,,2013-08-15 00:52:00,
2013-08-14 18:15:00,71.0,59.0,29.93,SW,229,6.0,9.0,65,0.00,,,0.00,,2013-08-15 01:15:00,
2013-08-14 18:22:00,71.0,59.0,29.93,WSW,241,2.0,7.0,65,0.00,,,0.00,,2013-08-15 01:22:00,
2013-08-14 18:42:00,71.0,59.0,29.93,SW,217,2.0,5.0,65,0.00,,,0.00,,2013-08-15 01:42:00,
2013-08-14 18:52:00,71.0,59.0,29.94,WSW,250,4.0,7.0,66,0.00,,,0.00,,2013-08-15 01:52:00,
2013-08-14 19:11:00,70.0,59.0,29.93,West,276,7.0,12.0,69,0.00,,,0.00,,2013-08-15 02:11:00,
2013-08-14 19:21:00,69.0,59.0,29.94,WNW,288,7.0,9.0,71,0.00,,,0.00,,2013-08-15 02:21:00,
2013-08-14 20:22:00,66.0,61.0,29.96,WSW,256,3.0,6.0,85,0.00,,,0.00,,2013-08-15 03:22:00,
2013-08-14 20:53:00,65.0,61.0,29.96,WSW,238,3.0,5.0,86,0.00,,,0.00,,2013-08-15 03:53:00,
2013-08-14 21:12:00,65.0,61.0,29.96,SW,218,3.0,6.0,86,0.01,,,0.01,,2013-08-15 04:12:00,
2013-08-14 21:22:00,65.0,61.0,29.97,South,190,3.0,5.0,87,0.01,,,0.01,,2013-08-15 04:22:00,
2013-08-14 21:43:00,65.0,62.0,29.96,ENE,70,2.0,3.0,89,0.01,,,0.01,,2013-08-15 04:43:00,
2013-08-14 21:52:00,64.0,61.0,29.96,ESE,109,3.0,4.0,90,0.02,,,0.02,,2013-08-15 04:52:00,
2013-08-14 22:12:00,64.0,61.0,29.94,East,92,4.0,7.0,91,0.01,,,0.02,,2013-08-15 05:12:00,
2013-08-14 22:22:00,64.0,62.0,29.94,SE,142,3.0,6.0,92,0.01,,,0.02,,2013-08-15 05:22:00,
2013-08-14 22:52:00,64.0,62.0,29.95,SE,139,2.0,3.0,92,0.00,,,0.02,,2013-08-15 05:52:00,
2013-08-14 23:11:00,64.0,61.0,29.95,South,170,0.0,4.0,91,0.00,,,0.02,,2013-08-15 06:11:00,
2013-08-14 23:21:00,64.0,62.0,29.95,SW,232,0.0,0.0,92,0.00,,,0.02,,2013-08-15 06:21:00,
2013-08-14 23:41:00,64.0,62.0,29.95,WSW,238,1.0,2.0,92,0.00,,,0.02,,2013-08-15 06:41:00,
2013-08-14 23:52:00,63.0,61.0,29.95,WSW,240,4.0,5.0,92,0.00,,,0.02,,2013-08-15 06:52:00,